Terminal Aerodrome Forecast
Issued by NWS Twin Cities, MN

Home | Current Version | Previous Version | Graphics & Text | Print | Product List | Glossary On
Versions: 1 2 3 4 5 6 7 8 9 10 11 12 13 14 15
000
FTUS43 KMPX 231120
TAFEAU
TAF
KEAU 231120Z 2312/2412 27005KT P6SM SKC
     FM231800 33008KT P6SM SCT080
     FM240000 VRB03KT P6SM BKN080
     FM240700 VRB02KT P6SM VCSH OVC060=

USA.gov is the U.S. government's official web portal to all federal, state and local government web resources and services.